sensor_id;sensor_type;location;lat;lon;timestamp;temperature;humidity
28189;DHT22;15471;51.166;4.470;2023-05-16T00:00:28;8.60;99.90
28189;DHT22;15471;51.166;4.470;2023-05-16T00:03:01;8.60;99.90
28189;DHT22;15471;51.166;4.470;2023-05-16T00:05:28;8.50;99.90
28189;DHT22;15471;51.166;4.470;2023-05-16T00:07:54;8.50;99.90
28189;DHT22;15471;51.166;4.470;2023-05-16T00:10:20;8.50;99.90
28189;DHT22;15471;51.166;4.470;2023-05-16T00:12:46;8.50;99.90
28189;DHT22;15471;51.166;4.470;2023-05-16T00:15:16;8.50;99.90
28189;DHT22;15471;51.166;4.470;2023-05-16T00:17:43;8.50;99.90
28189;DHT22;15471;51.166;4.470;2023-05-16T00:20:14;8.50;99.90
28189;DHT22;15471;51.166;4.470;2023-05-16T00:22:44;8.50;99.90
28189;DHT22;15471;51.166;4.470;2023-05-16T00:25:10;8.40;99.90
28189;DHT22;15471;51.166;4.470;2023-05-16T00:27:37;8.40;99.90
28189;DHT22;15471;51.166;4.470;2023-05-16T00:30:03;8.50;99.90
28189;DHT22;15471;51.166;4.470;2023-05-16T00:32:29;8.50;99.90
28189;DHT22;15471;51.166;4.470;2023-05-16T00:34:56;8.40;99.90
28189;DHT22;15471;51.166;4.470;2023-05-16T00:37:22;8.40;99.90
28189;DHT22;15471;51.166;4.470;2023-05-16T00:39:48;8.40;99.90
28189;DHT22;15471;51.166;4.470;2023-05-16T00:42:14;8.30;99.90
28189;DHT22;15471;51.166;4.470;2023-05-16T00:44:41;8.30;99.90
28189;DHT22;15471;51.166;4.470;2023-05-16T00:47:07;8.30;99.90
28189;DHT22;15471;51.166;4.470;2023-05-16T00:49:34;8.30;99.90
28189;DHT22;15471;51.166;4.470;2023-05-16T00:52:00;8.30;99.90
28189;DHT22;15471;51.166;4.470;2023-05-16T00:54:26;8.30;99.90
28189;DHT22;15471;51.166;4.470;2023-05-16T00:56:54;8.30;99.90
28189;DHT22;15471;51.166;4.470;2023-05-16T00:59:22;8.30;99.90
28189;DHT22;15471;51.166;4.470;2023-05-16T01:01:52;8.20;99.90
28189;DHT22;15471;51.166;4.470;2023-05-16T01:04:18;8.20;99.90
28189;DHT22;15471;51.166;4.470;2023-05-16T01:06:45;8.20;99.90
28189;DHT22;15471;51.166;4.470;2023-05-16T01:09:12;8.20;99.90
28189;DHT22;15471;51.166;4.470;2023-05-16T01:12:01;8.30;99.90
28189;DHT22;15471;51.166;4.470;2023-05-16T01:14:47;8.20;99.90
28189;DHT22;15471;51.166;4.470;2023-05-16T01:17:28;8.20;99.90
28189;DHT22;15471;51.166;4.470;2023-05-16T01:20:07;8.20;99.90
28189;DHT22;15471;51.166;4.470;2023-05-16T01:28:06;8.10;99.90
28189;DHT22;15471;51.166;4.470;2023-05-16T01:30:36;8.10;99.90
28189;DHT22;15471;51.166;4.470;2023-05-16T01:33:02;8.10;99.90
28189;DHT22;15471;51.166;4.470;2023-05-16T01:35:29;8.10;99.90
28189;DHT22;15471;51.166;4.470;2023-05-16T01:43:39;8.00;99.90
28189;DHT22;15471;51.166;4.470;2023-05-16T01:46:18;8.00;99.90
28189;DHT22;15471;51.166;4.470;2023-05-16T01:49:04;7.90;99.90
28189;DHT22;15471;51.166;4.470;2023-05-16T01:51:40;7.90;99.90
28189;DHT22;15471;51.166;4.470;2023-05-16T01:54:10;7.90;99.90
28189;DHT22;15471;51.166;4.470;2023-05-16T01:56:38;7.90;99.90
28189;DHT22;15471;51.166;4.470;2023-05-16T01:59:04;7.90;99.90
28189;DHT22;15471;51.166;4.470;2023-05-16T02:01:31;7.90;99.90
28189;DHT22;15471;51.166;4.470;2023-05-16T02:03:58;7.90;99.90
28189;DHT22;15471;51.166;4.470;2023-05-16T02:06:24;7.80;99.90
28189;DHT22;15471;51.166;4.470;2023-05-16T02:08:55;7.80;99.90
28189;DHT22;15471;51.166;4.470;2023-05-16T02:11:21;7.80;99.90
28189;DHT22;15471;51.166;4.470;2023-05-16T02:13:48;7.80;99.90
28189;DHT22;15471;51.166;4.470;2023-05-16T02:16:14;7.80;99.90
28189;DHT22;15471;51.166;4.470;2023-05-16T02:18:40;7.80;99.90
28189;DHT22;15471;51.166;4.470;2023-05-16T02:21:07;7.80;99.90
28189;DHT22;15471;51.166;4.470;2023-05-16T02:23:35;7.70;99.90
28189;DHT22;15471;51.166;4.470;2023-05-16T02:26:01;7.80;99.90
28189;DHT22;15471;51.166;4.470;2023-05-16T02:28:27;7.60;99.90
28189;DHT22;15471;51.166;4.470;2023-05-16T02:31:00;7.70;99.90
28189;DHT22;15471;51.166;4.470;2023-05-16T02:33:26;7.70;99.90
28189;DHT22;15471;51.166;4.470;2023-05-16T02:35:53;7.70;99.90
28189;DHT22;15471;51.166;4.470;2023-05-16T02:38:20;7.70;99.90
28189;DHT22;15471;51.166;4.470;2023-05-16T02:40:47;7.70;99.90
28189;DHT22;15471;51.166;4.470;2023-05-16T02:43:13;7.70;99.90
28189;DHT22;15471;51.166;4.470;2023-05-16T02:45:41;7.70;99.90
28189;DHT22;15471;51.166;4.470;2023-05-16T02:48:07;7.70;99.90
28189;DHT22;15471;51.166;4.470;2023-05-16T02:50:34;7.60;99.90
28189;DHT22;15471;51.166;4.470;2023-05-16T02:53:00;7.70;99.90
28189;DHT22;15471;51.166;4.470;2023-05-16T02:55:28;7.60;99.90
28189;DHT22;15471;51.166;4.470;2023-05-16T02:57:54;7.70;99.90
28189;DHT22;15471;51.166;4.470;2023-05-16T03:00:20;7.70;99.90
28189;DHT22;15471;51.166;4.470;2023-05-16T03:02:46;7.70;99.90
28189;DHT22;15471;51.166;4.470;2023-05-16T03:05:12;7.70;99.90
28189;DHT22;15471;51.166;4.470;2023-05-16T03:07:39;7.70;99.90
28189;DHT22;15471;51.166;4.470;2023-05-16T03:10:06;7.70;99.90
28189;DHT22;15471;51.166;4.470;2023-05-16T03:12:32;7.70;99.90
28189;DHT22;15471;51.166;4.470;2023-05-16T03:14:58;7.70;99.90
28189;DHT22;15471;51.166;4.470;2023-05-16T03:17:24;7.70;99.90
28189;DHT22;15471;51.166;4.470;2023-05-16T03:19:51;7.70;99.90
28189;DHT22;15471;51.166;4.470;2023-05-16T03:22:17;7.70;99.90
28189;DHT22;15471;51.166;4.470;2023-05-16T03:24:43;7.70;99.90
28189;DHT22;15471;51.166;4.470;2023-05-16T03:27:10;7.70;99.90
28189;DHT22;15471;51.166;4.470;2023-05-16T03:29:36;7.60;99.90
28189;DHT22;15471;51.166;4.470;2023-05-16T03:32:03;7.60;99.90
28189;DHT22;15471;51.166;4.470;2023-05-16T03:34:29;7.60;99.90
28189;DHT22;15471;51.166;4.470;2023-05-16T03:36:56;7.60;99.90
28189;DHT22;15471;51.166;4.470;2023-05-16T03:39:25;7.60;99.90
28189;DHT22;15471;51.166;4.470;2023-05-16T03:41:51;7.60;99.90
28189;DHT22;15471;51.166;4.470;2023-05-16T03:44:20;7.60;99.90
28189;DHT22;15471;51.166;4.470;2023-05-16T03:46:46;7.50;99.90
28189;DHT22;15471;51.166;4.470;2023-05-16T03:49:12;7.50;99.90
28189;DHT22;15471;51.166;4.470;2023-05-16T03:51:38;7.60;99.90
28189;DHT22;15471;51.166;4.470;2023-05-16T03:54:04;7.60;99.90
28189;DHT22;15471;51.166;4.470;2023-05-16T03:56:31;7.60;99.90
28189;DHT22;15471;51.166;4.470;2023-05-16T03:58:57;7.60;99.90
28189;DHT22;15471;51.166;4.470;2023-05-16T04:01:23;7.60;99.90
28189;DHT22;15471;51.166;4.470;2023-05-16T04:03:49;7.60;99.90
28189;DHT22;15471;51.166;4.470;2023-05-16T04:06:15;7.60;99.90
28189;DHT22;15471;51.166;4.470;2023-05-16T04:08:42;7.70;99.90
28189;DHT22;15471;51.166;4.470;2023-05-16T04:11:09;7.70;99.90
28189;DHT22;15471;51.166;4.470;2023-05-16T04:13:35;7.70;99.90
28189;DHT22;15471;51.166;4.470;2023-05-16T04:16:01;7.70;99.90
28189;DHT22;15471;51.166;4.470;2023-05-16T04:18:27;7.80;99.90
28189;DHT22;15471;51.166;4.470;2023-05-16T04:20:54;7.80;99.90
28189;DHT22;15471;51.166;4.470;2023-05-16T04:23:20;7.80;99.90
28189;DHT22;15471;51.166;4.470;2023-05-16T04:25:46;7.90;99.90
28189;DHT22;15471;51.166;4.470;2023-05-16T04:28:11;7.90;99.90
28189;DHT22;15471;51.166;4.470;2023-05-16T04:30:38;7.90;99.90
28189;DHT22;15471;51.166;4.470;2023-05-16T04:33:04;7.90;99.90
28189;DHT22;15471;51.166;4.470;2023-05-16T04:35:30;7.90;99.90
28189;DHT22;15471;51.166;4.470;2023-05-16T04:37:58;7.90;99.90
28189;DHT22;15471;51.166;4.470;2023-05-16T04:40:24;7.80;99.90
28189;DHT22;15471;51.166;4.470;2023-05-16T04:42:50;7.90;99.90
28189;DHT22;15471;51.166;4.470;2023-05-16T04:45:18;7.90;99.90
28189;DHT22;15471;51.166;4.470;2023-05-16T04:47:44;8.00;99.90
28189;DHT22;15471;51.166;4.470;2023-05-16T04:50:10;8.10;99.90
28189;DHT22;15471;51.166;4.470;2023-05-16T04:52:36;8.10;99.90
28189;DHT22;15471;51.166;4.470;2023-05-16T04:55:03;8.20;99.90
28189;DHT22;15471;51.166;4.470;2023-05-16T04:57:29;8.20;99.90
28189;DHT22;15471;51.166;4.470;2023-05-16T04:59:55;8.30;99.90
28189;DHT22;15471;51.166;4.470;2023-05-16T05:02:21;8.30;99.90
28189;DHT22;15471;51.166;4.470;2023-05-16T05:04:48;8.40;99.90
28189;DHT22;15471;51.166;4.470;2023-05-16T05:07:14;8.40;99.90
28189;DHT22;15471;51.166;4.470;2023-05-16T05:09:40;8.50;99.90
28189;DHT22;15471;51.166;4.470;2023-05-16T05:12:08;8.50;99.90
28189;DHT22;15471;51.166;4.470;2023-05-16T05:14:34;8.60;99.90
28189;DHT22;15471;51.166;4.470;2023-05-16T05:17:00;8.60;99.90
28189;DHT22;15471;51.166;4.470;2023-05-16T05:19:26;8.70;99.90
28189;DHT22;15471;51.166;4.470;2023-05-16T05:21:52;8.70;99.90
28189;DHT22;15471;51.166;4.470;2023-05-16T05:24:18;8.70;99.90
28189;DHT22;15471;51.166;4.470;2023-05-16T05:26:45;8.80;99.90
28189;DHT22;15471;51.166;4.470;2023-05-16T05:29:11;8.90;99.90
28189;DHT22;15471;51.166;4.470;2023-05-16T05:31:37;8.90;99.90
28189;DHT22;15471;51.166;4.470;2023-05-16T05:34:03;9.00;99.90
28189;DHT22;15471;51.166;4.470;2023-05-16T05:36:32;9.00;99.90
28189;DHT22;15471;51.166;4.470;2023-05-16T05:38:58;9.10;99.90
28189;DHT22;15471;51.166;4.470;2023-05-16T05:41:24;9.10;99.90
28189;DHT22;15471;51.166;4.470;2023-05-16T05:43:51;9.10;99.90
28189;DHT22;15471;51.166;4.470;2023-05-16T05:46:17;9.10;99.90
28189;DHT22;15471;51.166;4.470;2023-05-16T05:48:44;9.20;99.90
28189;DHT22;15471;51.166;4.470;2023-05-16T05:51:10;9.20;99.90
28189;DHT22;15471;51.166;4.470;2023-05-16T05:53:39;9.20;99.90
28189;DHT22;15471;51.166;4.470;2023-05-16T05:56:06;9.30;99.90
28189;DHT22;15471;51.166;4.470;2023-05-16T05:58:32;9.30;99.90
28189;DHT22;15471;51.166;4.470;2023-05-16T06:00:58;9.40;99.90
28189;DHT22;15471;51.166;4.470;2023-05-16T06:03:24;9.50;99.90
28189;DHT22;15471;51.166;4.470;2023-05-16T06:05:51;9.50;99.90
28189;DHT22;15471;51.166;4.470;2023-05-16T06:08:17;9.50;99.90
28189;DHT22;15471;51.166;4.470;2023-05-16T06:10:43;9.50;99.90
28189;DHT22;15471;51.166;4.470;2023-05-16T06:13:09;9.60;99.90
28189;DHT22;15471;51.166;4.470;2023-05-16T06:15:35;9.60;99.90
28189;DHT22;15471;51.166;4.470;2023-05-16T06:18:02;9.70;99.90
28189;DHT22;15471;51.166;4.470;2023-05-16T06:20:28;9.70;99.90
28189;DHT22;15471;51.166;4.470;2023-05-16T06:22:54;9.60;99.90
28189;DHT22;15471;51.166;4.470;2023-05-16T06:25:21;9.80;99.90
28189;DHT22;15471;51.166;4.470;2023-05-16T06:27:47;9.80;99.90
28189;DHT22;15471;51.166;4.470;2023-05-16T06:30:13;9.90;99.90
28189;DHT22;15471;51.166;4.470;2023-05-16T06:32:43;9.90;99.90
28189;DHT22;15471;51.166;4.470;2023-05-16T06:35:09;9.90;99.90
28189;DHT22;15471;51.166;4.470;2023-05-16T06:37:35;10.00;99.90
28189;DHT22;15471;51.166;4.470;2023-05-16T06:40:02;10.00;99.90
28189;DHT22;15471;51.166;4.470;2023-05-16T06:42:28;10.10;99.90
28189;DHT22;15471;51.166;4.470;2023-05-16T06:44:55;10.10;99.90
28189;DHT22;15471;51.166;4.470;2023-05-16T06:47:21;10.30;99.90
28189;DHT22;15471;51.166;4.470;2023-05-16T06:49:47;10.40;99.90
28189;DHT22;15471;51.166;4.470;2023-05-16T06:52:13;10.60;99.90
28189;DHT22;15471;51.166;4.470;2023-05-16T06:54:39;10.60;99.90
28189;DHT22;15471;51.166;4.470;2023-05-16T06:57:06;10.60;99.90
28189;DHT22;15471;51.166;4.470;2023-05-16T06:59:33;10.60;99.90
28189;DHT22;15471;51.166;4.470;2023-05-16T07:02:00;10.70;99.90
28189;DHT22;15471;51.166;4.470;2023-05-16T07:04:26;10.90;99.90
28189;DHT22;15471;51.166;4.470;2023-05-16T07:06:52;11.00;99.90
28189;DHT22;15471;51.166;4.470;2023-05-16T07:09:20;11.20;99.90
28189;DHT22;15471;51.166;4.470;2023-05-16T07:11:46;11.50;99.90
28189;DHT22;15471;51.166;4.470;2023-05-16T07:14:12;11.70;99.90
28189;DHT22;15471;51.166;4.470;2023-05-16T07:16:38;11.80;99.90
28189;DHT22;15471;51.166;4.470;2023-05-16T07:19:04;11.70;99.90
28189;DHT22;15471;51.166;4.470;2023-05-16T07:21:30;11.80;99.90
28189;DHT22;15471;51.166;4.470;2023-05-16T07:23:57;11.50;99.90
28189;DHT22;15471;51.166;4.470;2023-05-16T07:26:23;11.30;99.90
28189;DHT22;15471;51.166;4.470;2023-05-16T07:28:49;11.30;99.90
28189;DHT22;15471;51.166;4.470;2023-05-16T07:31:18;11.30;99.90
28189;DHT22;15471;51.166;4.470;2023-05-16T07:33:44;11.20;99.90
28189;DHT22;15471;51.166;4.470;2023-05-16T07:36:12;11.10;99.90
28189;DHT22;15471;51.166;4.470;2023-05-16T07:38:38;11.10;99.90
28189;DHT22;15471;51.166;4.470;2023-05-16T07:41:07;11.00;99.90
28189;DHT22;15471;51.166;4.470;2023-05-16T07:43:36;11.00;99.90
28189;DHT22;15471;51.166;4.470;2023-05-16T07:46:03;11.10;99.90
28189;DHT22;15471;51.166;4.470;2023-05-16T07:48:29;11.20;99.90
28189;DHT22;15471;51.166;4.470;2023-05-16T07:50:56;11.10;99.90
28189;DHT22;15471;51.166;4.470;2023-05-16T07:53:22;11.10;99.90
28189;DHT22;15471;51.166;4.470;2023-05-16T07:55:48;11.30;99.90
28189;DHT22;15471;51.166;4.470;2023-05-16T07:58:15;11.60;99.90
28189;DHT22;15471;51.166;4.470;2023-05-16T08:00:41;11.70;99.90
28189;DHT22;15471;51.166;4.470;2023-05-16T08:03:07;11.70;99.90
28189;DHT22;15471;51.166;4.470;2023-05-16T08:05:33;11.70;99.90
28189;DHT22;15471;51.166;4.470;2023-05-16T08:07:59;11.50;99.90
28189;DHT22;15471;51.166;4.470;2023-05-16T08:10:25;11.40;99.90
28189;DHT22;15471;51.166;4.470;2023-05-16T08:12:52;11.60;99.90
28189;DHT22;15471;51.166;4.470;2023-05-16T08:15:18;11.60;99.90
28189;DHT22;15471;51.166;4.470;2023-05-16T08:17:44;11.60;99.90
28189;DHT22;15471;51.166;4.470;2023-05-16T08:20:11;11.60;99.90
28189;DHT22;15471;51.166;4.470;2023-05-16T08:22:37;11.80;99.90
28189;DHT22;15471;51.166;4.470;2023-05-16T08:25:04;12.00;99.90
28189;DHT22;15471;51.166;4.470;2023-05-16T08:27:30;12.30;99.90
28189;DHT22;15471;51.166;4.470;2023-05-16T08:29:56;12.40;99.90
28189;DHT22;15471;51.166;4.470;2023-05-16T08:32:25;12.40;99.90
28189;DHT22;15471;51.166;4.470;2023-05-16T08:34:51;12.40;99.90
28189;DHT22;15471;51.166;4.470;2023-05-16T08:37:17;12.30;99.90
28189;DHT22;15471;51.166;4.470;2023-05-16T08:39:43;12.30;99.90
28189;DHT22;15471;51.166;4.470;2023-05-16T08:42:13;12.20;99.90
28189;DHT22;15471;51.166;4.470;2023-05-16T08:44:40;12.60;99.90
28189;DHT22;15471;51.166;4.470;2023-05-16T08:47:12;12.50;99.90
28189;DHT22;15471;51.166;4.470;2023-05-16T08:49:41;12.60;99.90
28189;DHT22;15471;51.166;4.470;2023-05-16T08:52:09;12.50;99.90
28189;DHT22;15471;51.166;4.470;2023-05-16T08:54:35;12.40;99.90
28189;DHT22;15471;51.166;4.470;2023-05-16T08:57:02;12.20;99.90
28189;DHT22;15471;51.166;4.470;2023-05-16T08:59:28;12.20;99.90
28189;DHT22;15471;51.166;4.470;2023-05-16T09:01:55;12.30;99.90
28189;DHT22;15471;51.166;4.470;2023-05-16T09:04:22;12.40;99.90
28189;DHT22;15471;51.166;4.470;2023-05-16T09:06:55;12.40;99.90
28189;DHT22;15471;51.166;4.470;2023-05-16T09:09:21;12.30;99.90
28189;DHT22;15471;51.166;4.470;2023-05-16T09:11:47;12.80;99.90
28189;DHT22;15471;51.166;4.470;2023-05-16T09:14:14;13.90;99.90
28189;DHT22;15471;51.166;4.470;2023-05-16T09:16:39;14.10;99.90
28189;DHT22;15471;51.166;4.470;2023-05-16T09:19:06;14.00;99.90
28189;DHT22;15471;51.166;4.470;2023-05-16T09:21:33;14.30;99.90
28189;DHT22;15471;51.166;4.470;2023-05-16T09:26:35;14.70;99.90
28189;DHT22;15471;51.166;4.470;2023-05-16T09:29:02;14.90;99.90
28189;DHT22;15471;51.166;4.470;2023-05-16T09:31:34;15.10;99.90
28189;DHT22;15471;51.166;4.470;2023-05-16T09:34:06;14.50;99.90
28189;DHT22;15471;51.166;4.470;2023-05-16T09:36:37;14.10;99.90
28189;DHT22;15471;51.166;4.470;2023-05-16T09:39:05;14.20;99.90
28189;DHT22;15471;51.166;4.470;2023-05-16T09:41:35;14.20;99.90
28189;DHT22;15471;51.166;4.470;2023-05-16T09:44:04;14.00;99.90
28189;DHT22;15471;51.166;4.470;2023-05-16T09:46:33;13.90;99.90
28189;DHT22;15471;51.166;4.470;2023-05-16T09:49:00;13.70;99.90
28189;DHT22;15471;51.166;4.470;2023-05-16T09:51:26;13.80;99.90
28189;DHT22;15471;51.166;4.470;2023-05-16T09:53:53;13.90;99.90
28189;DHT22;15471;51.166;4.470;2023-05-16T09:56:19;14.40;99.90
28189;DHT22;15471;51.166;4.470;2023-05-16T09:58:46;14.70;99.90
28189;DHT22;15471;51.166;4.470;2023-05-16T10:01:12;15.10;99.90
28189;DHT22;15471;51.166;4.470;2023-05-16T10:03:40;15.10;99.90
28189;DHT22;15471;51.166;4.470;2023-05-16T10:06:07;14.80;99.90
28189;DHT22;15471;51.166;4.470;2023-05-16T10:08:35;14.40;99.90
28189;DHT22;15471;51.166;4.470;2023-05-16T10:11:03;14.20;99.90
28189;DHT22;15471;51.166;4.470;2023-05-16T10:13:32;13.70;99.90
28189;DHT22;15471;51.166;4.470;2023-05-16T10:16:00;13.60;99.90
28189;DHT22;15471;51.166;4.470;2023-05-16T10:18:31;13.60;99.90
28189;DHT22;15471;51.166;4.470;2023-05-16T10:21:07;13.60;99.90
28189;DHT22;15471;51.166;4.470;2023-05-16T10:23:33;13.70;99.90
28189;DHT22;15471;51.166;4.470;2023-05-16T10:26:02;13.60;99.90
28189;DHT22;15471;51.166;4.470;2023-05-16T10:28:29;13.70;99.90
28189;DHT22;15471;51.166;4.470;2023-05-16T10:30:56;13.80;99.90
28189;DHT22;15471;51.166;4.470;2023-05-16T10:33:24;14.10;99.90
28189;DHT22;15471;51.166;4.470;2023-05-16T10:35:50;14.30;99.90
28189;DHT22;15471;51.166;4.470;2023-05-16T10:38:17;14.40;99.90
28189;DHT22;15471;51.166;4.470;2023-05-16T10:40:46;14.50;99.90
28189;DHT22;15471;51.166;4.470;2023-05-16T10:43:25;14.40;99.90
28189;DHT22;15471;51.166;4.470;2023-05-16T10:46:09;14.50;99.90
28189;DHT22;15471;51.166;4.470;2023-05-16T10:48:40;13.90;99.90
28189;DHT22;15471;51.166;4.470;2023-05-16T10:53:53;14.10;99.90
28189;DHT22;15471;51.166;4.470;2023-05-16T10:56:26;14.20;99.90
28189;DHT22;15471;51.166;4.470;2023-05-16T10:58:55;14.00;99.90
28189;DHT22;15471;51.166;4.470;2023-05-16T11:01:27;13.90;99.90
28189;DHT22;15471;51.166;4.470;2023-05-16T11:06:29;13.60;99.90
28189;DHT22;15471;51.166;4.470;2023-05-16T11:11:56;13.80;99.90
28189;DHT22;15471;51.166;4.470;2023-05-16T11:14:39;13.80;99.90
28189;DHT22;15471;51.166;4.470;2023-05-16T11:17:13;14.00;99.90
28189;DHT22;15471;51.166;4.470;2023-05-16T11:25:06;14.20;99.90
28189;DHT22;15471;51.166;4.470;2023-05-16T11:27:50;13.90;99.90
28189;DHT22;15471;51.166;4.470;2023-05-16T11:30:17;13.70;99.90
28189;DHT22;15471;51.166;4.470;2023-05-16T11:32:46;13.90;99.90
28189;DHT22;15471;51.166;4.470;2023-05-16T11:35:17;14.20;99.90
28189;DHT22;15471;51.166;4.470;2023-05-16T11:37:44;14.50;99.90
28189;DHT22;15471;51.166;4.470;2023-05-16T11:40:12;14.30;99.90
28189;DHT22;15471;51.166;4.470;2023-05-16T11:42:44;14.10;99.90
28189;DHT22;15471;51.166;4.470;2023-05-16T11:45:13;13.90;99.90
28189;DHT22;15471;51.166;4.470;2023-05-16T11:47:41;13.90;99.90
28189;DHT22;15471;51.166;4.470;2023-05-16T11:50:19;14.10;99.90
28189;DHT22;15471;51.166;4.470;2023-05-16T11:52:53;14.10;99.90
28189;DHT22;15471;51.166;4.470;2023-05-16T11:55:26;14.70;99.90
28189;DHT22;15471;51.166;4.470;2023-05-16T11:57:53;15.20;99.90
28189;DHT22;15471;51.166;4.470;2023-05-16T12:00:21;15.40;99.90
28189;DHT22;15471;51.166;4.470;2023-05-16T12:02:49;15.30;99.90
28189;DHT22;15471;51.166;4.470;2023-05-16T12:05:19;15.10;99.90
28189;DHT22;15471;51.166;4.470;2023-05-16T12:07:50;14.90;99.90
28189;DHT22;15471;51.166;4.470;2023-05-16T12:10:19;14.70;99.90
28189;DHT22;15471;51.166;4.470;2023-05-16T12:12:47;14.60;99.90
28189;DHT22;15471;51.166;4.470;2023-05-16T12:15:13;14.80;99.90
28189;DHT22;15471;51.166;4.470;2023-05-16T12:17:40;15.00;99.90
28189;DHT22;15471;51.166;4.470;2023-05-16T12:20:09;15.20;99.90
28189;DHT22;15471;51.166;4.470;2023-05-16T12:22:39;15.00;99.90
28189;DHT22;15471;51.166;4.470;2023-05-16T12:25:29;15.00;99.90
28189;DHT22;15471;51.166;4.470;2023-05-16T12:28:01;14.90;99.90
28189;DHT22;15471;51.166;4.470;2023-05-16T12:30:28;15.00;99.90
28189;DHT22;15471;51.166;4.470;2023-05-16T12:32:56;15.20;99.90
28189;DHT22;15471;51.166;4.470;2023-05-16T12:35:29;15.30;99.90
28189;DHT22;15471;51.166;4.470;2023-05-16T12:37:55;15.50;99.90
28189;DHT22;15471;51.166;4.470;2023-05-16T12:40:22;15.40;99.90
28189;DHT22;15471;51.166;4.470;2023-05-16T12:42:52;15.50;99.90
28189;DHT22;15471;51.166;4.470;2023-05-16T12:45:21;15.40;99.90
28189;DHT22;15471;51.166;4.470;2023-05-16T12:47:48;15.30;99.90
28189;DHT22;15471;51.166;4.470;2023-05-16T12:50:15;15.20;99.90
28189;DHT22;15471;51.166;4.470;2023-05-16T12:52:49;15.10;99.90
28189;DHT22;15471;51.166;4.470;2023-05-16T12:55:21;15.00;99.90
28189;DHT22;15471;51.166;4.470;2023-05-16T12:57:48;14.90;99.90
28189;DHT22;15471;51.166;4.470;2023-05-16T13:00:16;14.90;99.90
28189;DHT22;15471;51.166;4.470;2023-05-16T13:02:44;14.80;99.90
28189;DHT22;15471;51.166;4.470;2023-05-16T13:05:11;14.70;99.90
28189;DHT22;15471;51.166;4.470;2023-05-16T13:07:37;14.60;99.90
28189;DHT22;15471;51.166;4.470;2023-05-16T13:10:09;14.40;99.90
28189;DHT22;15471;51.166;4.470;2023-05-16T13:12:36;14.30;99.90
28189;DHT22;15471;51.166;4.470;2023-05-16T13:15:05;14.40;99.90
28189;DHT22;15471;51.166;4.470;2023-05-16T13:17:33;14.50;99.90
28189;DHT22;15471;51.166;4.470;2023-05-16T13:19:59;14.60;99.90
28189;DHT22;15471;51.166;4.470;2023-05-16T13:22:28;14.60;99.90
28189;DHT22;15471;51.166;4.470;2023-05-16T13:24:55;14.80;99.90
28189;DHT22;15471;51.166;4.470;2023-05-16T13:27:21;14.90;99.90
28189;DHT22;15471;51.166;4.470;2023-05-16T13:29:50;14.90;99.90
28189;DHT22;15471;51.166;4.470;2023-05-16T13:32:16;14.80;99.90
28189;DHT22;15471;51.166;4.470;2023-05-16T13:34:43;14.70;99.90
28189;DHT22;15471;51.166;4.470;2023-05-16T13:37:09;14.80;99.90
28189;DHT22;15471;51.166;4.470;2023-05-16T13:39:42;15.00;99.90
28189;DHT22;15471;51.166;4.470;2023-05-16T13:42:19;15.30;99.90
28189;DHT22;15471;51.166;4.470;2023-05-16T13:45:04;15.20;99.90
28189;DHT22;15471;51.166;4.470;2023-05-16T13:47:31;15.20;99.90
28189;DHT22;15471;51.166;4.470;2023-05-16T13:50:01;15.60;99.90
28189;DHT22;15471;51.166;4.470;2023-05-16T13:52:35;15.80;99.90
28189;DHT22;15471;51.166;4.470;2023-05-16T13:55:03;15.80;99.90
28189;DHT22;15471;51.166;4.470;2023-05-16T13:57:29;15.30;99.90
28189;DHT22;15471;51.166;4.470;2023-05-16T13:59:58;15.30;99.90
28189;DHT22;15471;51.166;4.470;2023-05-16T14:02:24;15.60;99.90
28189;DHT22;15471;51.166;4.470;2023-05-16T14:04:53;15.70;99.90
28189;DHT22;15471;51.166;4.470;2023-05-16T14:07:19;15.70;99.90
28189;DHT22;15471;51.166;4.470;2023-05-16T14:09:48;15.80;99.90
28189;DHT22;15471;51.166;4.470;2023-05-16T14:12:18;16.00;99.90
28189;DHT22;15471;51.166;4.470;2023-05-16T14:14:47;15.70;99.90
28189;DHT22;15471;51.166;4.470;2023-05-16T14:17:13;15.70;99.90
28189;DHT22;15471;51.166;4.470;2023-05-16T14:19:40;15.60;99.90
28189;DHT22;15471;51.166;4.470;2023-05-16T14:22:06;15.90;99.90
28189;DHT22;15471;51.166;4.470;2023-05-16T14:24:33;16.10;99.90
28189;DHT22;15471;51.166;4.470;2023-05-16T14:26:59;16.20;99.90
28189;DHT22;15471;51.166;4.470;2023-05-16T14:29:28;16.30;99.90
28189;DHT22;15471;51.166;4.470;2023-05-16T14:31:54;16.10;99.90
28189;DHT22;15471;51.166;4.470;2023-05-16T14:34:20;15.90;99.90
28189;DHT22;15471;51.166;4.470;2023-05-16T14:36:49;15.80;99.90
28189;DHT22;15471;51.166;4.470;2023-05-16T14:39:16;15.80;99.90
28189;DHT22;15471;51.166;4.470;2023-05-16T14:41:42;16.20;99.90
28189;DHT22;15471;51.166;4.470;2023-05-16T14:44:09;16.60;99.90
28189;DHT22;15471;51.166;4.470;2023-05-16T14:46:37;16.50;99.90
28189;DHT22;15471;51.166;4.470;2023-05-16T14:49:03;16.50;99.90
28189;DHT22;15471;51.166;4.470;2023-05-16T14:51:29;16.40;99.90
28189;DHT22;15471;51.166;4.470;2023-05-16T14:53:58;16.40;99.90
28189;DHT22;15471;51.166;4.470;2023-05-16T14:56:25;16.70;99.90
28189;DHT22;15471;51.166;4.470;2023-05-16T14:59:00;16.70;99.90
28189;DHT22;15471;51.166;4.470;2023-05-16T15:01:27;16.30;99.90
28189;DHT22;15471;51.166;4.470;2023-05-16T15:03:53;16.50;99.90
28189;DHT22;15471;51.166;4.470;2023-05-16T15:06:19;16.70;99.90
28189;DHT22;15471;51.166;4.470;2023-05-16T15:08:49;16.30;99.90
28189;DHT22;15471;51.166;4.470;2023-05-16T15:11:15;16.00;99.90
28189;DHT22;15471;51.166;4.470;2023-05-16T15:13:41;16.10;99.90
28189;DHT22;15471;51.166;4.470;2023-05-16T15:16:08;16.30;99.90
28189;DHT22;15471;51.166;4.470;2023-05-16T15:18:37;16.70;99.90
28189;DHT22;15471;51.166;4.470;2023-05-16T15:21:03;17.90;99.90
28189;DHT22;15471;51.166;4.470;2023-05-16T15:23:29;19.70;99.40
28189;DHT22;15471;51.166;4.470;2023-05-16T15:25:58;21.00;95.70
28189;DHT22;15471;51.166;4.470;2023-05-16T15:28:25;21.40;93.20
28189;DHT22;15471;51.166;4.470;2023-05-16T15:30:51;20.50;92.10
28189;DHT22;15471;51.166;4.470;2023-05-16T15:33:22;20.80;93.00
28189;DHT22;15471;51.166;4.470;2023-05-16T15:35:49;22.10;89.40
28189;DHT22;15471;51.166;4.470;2023-05-16T15:38:15;21.70;84.50
28189;DHT22;15471;51.166;4.470;2023-05-16T15:40:41;21.10;90.00
28189;DHT22;15471;51.166;4.470;2023-05-16T15:43:10;22.40;84.40
28189;DHT22;15471;51.166;4.470;2023-05-16T15:45:37;22.20;83.70
28189;DHT22;15471;51.166;4.470;2023-05-16T15:51:01;22.10;80.00
28189;DHT22;15471;51.166;4.470;2023-05-16T15:53:36;22.20;76.00
28189;DHT22;15471;51.166;4.470;2023-05-16T15:56:41;21.70;79.80
28189;DHT22;15471;51.166;4.470;2023-05-16T15:59:36;22.70;76.90
28189;DHT22;15471;51.166;4.470;2023-05-16T16:02:45;25.00;69.80
28189;DHT22;15471;51.166;4.470;2023-05-16T16:05:26;25.70;63.90
28189;DHT22;15471;51.166;4.470;2023-05-16T16:07:56;23.30;64.60
28189;DHT22;15471;51.166;4.470;2023-05-16T16:10:23;23.10;68.30
28189;DHT22;15471;51.166;4.470;2023-05-16T16:13:03;22.40;67.10